< < Back
Terminal Aerodrome Forecast


Current Version              Previous Versions:   1  2  3  4  5  6  7  8  9  

Terminal Aerodrome Forecast

908
FTUS44 KBMX 181700
TAFANB
TAF
KANB 181738Z 1818/1918 05009KT P6SM -RA OVC080
     FM190000 36007KT 5SM -DZ BR OVC010
     FM190900 36006KT P6SM OVC015
     FM191400 04010KT P6SM OVC025=

Latest METAR

444
SAUS70 KWBC 190400 RRB
MTRANB
METAR KANB 190353Z AUTO 02004KT 10SM -RA OVC085 12/09 A3016 RMK AO2
SLP215 P0001 T01170094


USA.gov is the U.S. government's official web portal to all federal, state and local government web resources and services.